Time;durP1;ratioP1;P1;durP2;ratioP2;P2;SDS_P1;SDS_P2;PMS_P1;PMS_P2;Temp;Humidity;BMP_temperature;BMP_pressure;BME280_temperature;BME280_humidity;BME280_pressure;Samples;Min_cycle;Max_cycle;Signal;HPM_P1;HPM_P2
2023/08/07 04:05:06;;;;;;;1.00;0.90;;;13.20;99.90;;;;;;5768166;22;20445;-60
2023/08/07 04:07:32;;;;;;;1.03;0.83;;;13.20;99.90;;;;;;4974934;28;20940;-59
2023/08/07 04:09:58;;;;;;;1.60;1.20;;;13.20;99.90;;;;;;4974899;28;20183;-60
2023/08/07 04:12:24;;;;;;;1.67;0.67;;;13.30;99.90;;;;;;4975073;28;20415;-60
2023/08/07 04:14:49;;;;;;;0.60;0.57;;;13.30;99.90;;;;;;4974481;28;20625;-60
2023/08/07 04:17:15;;;;;;;0.57;0.57;;;13.30;99.90;;;;;;4974839;28;20270;-60
2023/08/07 04:19:40;;;;;;;0.63;0.63;;;13.30;99.90;;;;;;4974832;28;20174;-60
2023/08/07 04:22:06;;;;;;;1.30;1.17;;;13.30;99.90;;;;;;4974960;28;20171;-60
2023/08/07 04:24:31;;;;;;;0.87;0.87;;;13.30;99.90;;;;;;4957019;28;20223;-60
2023/08/07 04:26:57;;;;;;;0.83;0.83;;;13.30;99.90;;;;;;4974877;28;20178;-61
2023/08/07 04:29:24;;;;;;;0.50;0.50;;;13.30;99.90;;;;;;4974819;28;20286;-60
2023/08/07 04:31:49;;;;;;;0.50;0.50;;;13.30;99.90;;;;;;4974609;28;20218;-60
2023/08/07 04:34:15;;;;;;;0.83;0.83;;;13.30;99.90;;;;;;4973707;28;20814;-60
2023/08/07 04:36:40;;;;;;;1.50;0.87;;;13.30;99.90;;;;;;4974184;28;20179;-60
2023/08/07 04:39:07;;;;;;;1.07;0.80;;;13.40;99.90;;;;;;4974770;28;20183;-60
2023/08/07 04:41:32;;;;;;;3.47;0.60;;;13.40;99.90;;;;;;4974700;28;20183;-60
2023/08/07 04:43:58;;;;;;;0.80;0.73;;;13.40;99.90;;;;;;4974259;28;20446;-60
2023/08/07 04:46:23;;;;;;;1.20;1.20;;;13.40;99.90;;;;;;4974328;28;20594;-60
2023/08/07 04:48:49;;;;;;;1.70;0.73;;;13.40;99.90;;;;;;4974690;28;20562;-60
2023/08/07 04:51:15;;;;;;;0.60;0.60;;;13.40;99.90;;;;;;4974402;28;20190;-60
2023/08/07 04:53:41;;;;;;;1.17;0.70;;;13.40;99.90;;;;;;4974141;28;20537;-60
2023/08/07 04:56:06;;;;;;;0.93;0.93;;;13.50;99.90;;;;;;4974540;28;20514;-60
2023/08/07 04:58:32;;;;;;;1.00;0.90;;;13.50;99.90;;;;;;4974531;28;20255;-60
2023/08/07 05:00:58;;;;;;;1.00;0.90;;;13.50;99.90;;;;;;4974370;28;20250;-60
2023/08/07 05:03:26;;;;;;;0.83;0.83;;;13.50;99.90;;;;;;4974410;28;20529;-60
2023/08/07 05:05:59;;;;;;;0.80;0.70;;;13.50;99.90;;;;;;4974178;28;20470;-60
2023/08/07 05:08:25;;;;;;;1.97;1.67;;;13.50;99.90;;;;;;4974398;28;20452;-60
2023/08/07 05:10:50;;;;;;;0.77;0.77;;;13.60;99.90;;;;;;4974310;28;20421;-60
2023/08/07 05:13:16;;;;;;;0.90;0.90;;;13.60;99.90;;;;;;4974381;28;20526;-60
2023/08/07 05:15:42;;;;;;;1.03;1.03;;;13.60;99.90;;;;;;4973846;28;20200;-60
2023/08/07 05:18:07;;;;;;;0.73;0.60;;;13.60;99.90;;;;;;4974233;28;20642;-61
2023/08/07 05:20:33;;;;;;;1.60;1.50;;;13.60;99.90;;;;;;4956898;28;20422;-61
2023/08/07 05:22:58;;;;;;;1.07;1.00;;;13.60;99.90;;;;;;4974279;28;20183;-60
2023/08/07 05:25:24;;;;;;;1.67;1.37;;;13.70;99.90;;;;;;4973674;28;20275;-60
2023/08/07 05:27:49;;;;;;;1.13;1.07;;;13.70;99.90;;;;;;4956928;28;20180;-61
2023/08/07 05:30:15;;;;;;;0.83;0.80;;;13.80;99.90;;;;;;4974320;28;20173;-61
2023/08/07 05:32:41;;;;;;;1.00;1.00;;;13.80;99.90;;;;;;4975906;28;20174;-60
2023/08/07 05:35:08;;;;;;;0.70;0.70;;;13.90;99.90;;;;;;4977424;28;20670;-61
2023/08/07 05:37:34;;;;;;;1.07;1.03;;;13.90;99.90;;;;;;4977819;28;20187;-61
2023/08/07 05:40:00;;;;;;;0.50;0.50;;;14.00;99.90;;;;;;4977797;28;20403;-61
2023/08/07 05:42:25;;;;;;;0.73;0.60;;;14.00;99.90;;;;;;4960543;28;20433;-61
2023/08/07 05:44:51;;;;;;;1.13;1.00;;;14.10;99.90;;;;;;4977322;28;20470;-62
2023/08/07 05:47:17;;;;;;;2.17;1.30;;;14.10;99.90;;;;;;4977681;28;20669;-63
2023/08/07 05:49:42;;;;;;;1.07;1.00;;;14.10;99.90;;;;;;4977719;28;20168;-61
2023/08/07 05:52:08;;;;;;;1.33;1.10;;;14.20;99.90;;;;;;4977517;28;20286;-61
2023/08/07 05:54:34;;;;;;;0.50;0.50;;;14.20;99.90;;;;;;4976990;28;20203;-61
2023/08/07 05:56:59;;;;;;;1.20;1.00;;;14.30;99.90;;;;;;4977449;28;20169;-61
2023/08/07 05:59:25;;;;;;;0.80;0.80;;;14.40;99.90;;;;;;4977264;28;20976;-61
2023/08/07 06:01:51;;;;;;;0.80;0.80;;;14.50;99.90;;;;;;4977513;28;20176;-62
2023/08/07 06:04:17;;;;;;;0.63;0.63;;;14.60;99.90;;;;;;4976945;28;20920;-61
2023/08/07 06:06:43;;;;;;;1.00;0.77;;;14.70;99.90;;;;;;4976969;28;20481;-61
2023/08/07 06:09:08;;;;;;;0.97;0.97;;;14.80;99.90;;;;;;4977358;28;20437;-61
2023/08/07 06:11:34;;;;;;;2.40;1.00;;;14.80;99.90;;;;;;4977296;28;20575;-61
2023/08/07 06:14:00;;;;;;;0.90;0.90;;;14.90;99.90;;;;;;4959424;28;20181;-61
2023/08/07 06:16:27;;;;;;;1.00;0.90;;;14.90;99.90;;;;;;4977297;28;20542;-61
2023/08/07 06:18:53;;;;;;;0.87;0.77;;;15.00;99.90;;;;;;4977370;28;20887;-61
2023/08/07 06:21:19;;;;;;;2.57;1.30;;;15.00;99.90;;;;;;4977005;28;20491;-61
2023/08/07 06:23:45;;;;;;;0.80;0.80;;;15.10;99.90;;;;;;4976660;28;20390;-61
2023/08/07 06:26:11;;;;;;;2.10;1.53;;;15.10;99.90;;;;;;4943669;28;20432;-61
2023/08/07 06:28:36;;;;;;;0.97;0.90;;;15.10;99.90;;;;;;4959516;28;20178;-61
2023/08/07 06:31:04;;;;;;;3.07;1.00;;;15.20;99.90;;;;;;4977095;28;20180;-61
2023/08/07 06:33:30;;;;;;;1.90;0.80;;;15.30;99.90;;;;;;4976468;28;20245;-61
2023/08/07 06:35:57;;;;;;;0.87;0.87;;;15.40;99.90;;;;;;4976761;28;20407;-61
2023/08/07 06:38:23;;;;;;;1.33;0.93;;;15.50;99.90;;;;;;4976950;28;20402;-61
2023/08/07 06:40:49;;;;;;;0.63;0.63;;;15.80;99.90;;;;;;4976534;28;20899;-61
2023/08/07 06:43:14;;;;;;;0.77;0.77;;;16.00;99.90;;;;;;4975964;28;20171;-61
2023/08/07 06:45:40;;;;;;;0.70;0.70;;;16.40;99.90;;;;;;4975765;28;20267;-61
2023/08/07 06:48:05;;;;;;;0.70;0.50;;;16.60;99.90;;;;;;4977024;28;20251;-61
2023/08/07 06:50:31;;;;;;;0.53;0.53;;;16.90;99.90;;;;;;4976546;28;20527;-61
2023/08/07 06:52:56;;;;;;;0.90;0.80;;;17.10;99.90;;;;;;4976606;28;20218;-61
2023/08/07 06:55:22;;;;;;;0.70;0.63;;;17.30;99.90;;;;;;4975896;28;20192;-61
2023/08/07 06:57:48;;;;;;;1.73;1.63;;;17.50;99.90;;;;;;4976518;28;20172;-61
2023/08/07 07:00:14;;;;;;;1.00;0.80;;;17.50;99.90;;;;;;4976161;28;20195;-61
2023/08/07 07:02:40;;;;;;;1.23;0.80;;;17.60;99.90;;;;;;4976186;28;20195;-61
2023/08/07 07:05:06;;;;;;;1.30;0.83;;;17.60;99.90;;;;;;4975547;28;20544;-61
2023/08/07 07:07:31;;;;;;;0.80;0.63;;;17.60;99.90;;;;;;4976119;28;20242;-61
2023/08/07 07:10:00;;;;;;;1.10;0.70;;;17.60;99.90;;;;;;4976106;28;20219;-61
2023/08/07 07:12:26;;;;;;;0.80;0.80;;;17.60;99.90;;;;;;4976075;28;20394;-61
2023/08/07 07:14:52;;;;;;;1.20;1.10;;;17.60;99.90;;;;;;4975765;28;20820;-60
2023/08/07 07:17:17;;;;;;;2.73;1.00;;;17.60;99.90;;;;;;4975904;28;20421;-61
2023/08/07 07:19:43;;;;;;;0.80;0.80;;;17.80;99.90;;;;;;4975829;28;20207;-61
2023/08/07 07:22:08;;;;;;;0.47;0.47;;;18.10;99.90;;;;;;4975934;28;20184;-61
2023/08/07 07:24:34;;;;;;;0.53;0.53;;;18.40;99.90;;;;;;4975314;28;20634;-60
2023/08/07 07:27:00;;;;;;;0.70;0.60;;;18.70;99.90;;;;;;4975813;28;20227;-61
2023/08/07 07:29:25;;;;;;;0.90;0.50;;;18.80;99.20;;;;;;4975869;28;20173;-61
2023/08/07 07:31:51;;;;;;;0.53;0.50;;;18.90;99.10;;;;;;4975630;28;20183;-62
2023/08/07 07:34:16;;;;;;;0.70;0.70;;;18.90;97.70;;;;;;4975214;28;20661;-61
2023/08/07 07:36:42;;;;;;;0.60;0.60;;;18.90;97.90;;;;;;4975453;28;20226;-61
2023/08/07 07:39:08;;;;;;;0.60;0.57;;;18.80;98.10;;;;;;4975565;28;20512;-61
2023/08/07 07:41:34;;;;;;;0.60;0.60;;;18.70;98.10;;;;;;4975565;28;20205;-61
2023/08/07 07:44:02;;;;;;;1.10;0.80;;;18.70;98.20;;;;;;4975108;28;20429;-61
2023/08/07 07:46:27;;;;;;;1.60;1.37;;;18.50;98.60;;;;;;4975150;28;20203;-61
2023/08/07 07:48:54;;;;;;;0.70;0.70;;;18.40;99.00;;;;;;4975370;28;20422;-61
2023/08/07 07:51:19;;;;;;;0.60;0.60;;;18.40;98.90;;;;;;4975435;28;20407;-62
2023/08/07 07:53:45;;;;;;;1.07;0.60;;;18.30;99.10;;;;;;4974850;28;20972;-62
2023/08/07 07:56:10;;;;;;;1.13;0.90;;;18.40;99.20;;;;;;4974832;28;20199;-61
2023/08/07 07:58:36;;;;;;;0.77;0.77;;;18.60;99.30;;;;;;4975186;28;20170;-61
2023/08/07 08:01:02;;;;;;;0.50;0.50;;;18.60;98.90;;;;;;4974953;28;20172;-61
2023/08/07 08:03:27;;;;;;;1.77;0.87;;;18.60;99.20;;;;;;4974969;28;20211;-61
2023/08/07 08:05:53;;;;;;;0.63;0.60;;;18.60;99.40;;;;;;4974715;28;20232;-61
2023/08/07 08:08:19;;;;;;;0.90;0.90;;;18.50;99.40;;;;;;4975131;28;20168;-61
2023/08/07 08:10:47;;;;;;;1.33;1.00;;;18.30;99.50;;;;;;4975018;28;20175;-61
2023/08/07 08:13:14;;;;;;;0.80;0.80;;;18.20;99.40;;;;;;4974986;28;20403;-61
2023/08/07 08:15:40;;;;;;;0.77;0.77;;;18.10;99.50;;;;;;4974735;28;20768;-61
2023/08/07 08:18:05;;;;;;;1.00;0.80;;;18.00;99.30;;;;;;4975253;28;20423;-62
2023/08/07 08:20:32;;;;;;;1.27;0.63;;;17.90;98.90;;;;;;4975001;28;20176;-61
2023/08/07 08:22:58;;;;;;;1.33;0.80;;;17.80;98.70;;;;;;4974871;28;20184;-61
2023/08/07 08:25:23;;;;;;;0.60;0.60;;;17.60;98.50;;;;;;4974409;28;20429;-60
2023/08/07 08:27:50;;;;;;;0.60;0.50;;;17.50;99.10;;;;;;4974697;28;20176;-61
2023/08/07 08:30:16;;;;;;;1.67;0.43;;;17.30;98.80;;;;;;4975255;28;20572;-61
2023/08/07 08:32:43;;;;;;;0.90;0.87;;;17.20;99.20;;;;;;4974826;28;20454;-61
2023/08/07 08:35:09;;;;;;;0.77;0.67;;;17.10;99.60;;;;;;4974237;28;21003;-61
2023/08/07 08:37:35;;;;;;;0.50;0.50;;;17.20;99.60;;;;;;4974551;28;20420;-61
2023/08/07 08:40:01;;;;;;;0.87;0.83;;;17.30;99.60;;;;;;4974790;28;20408;-61
2023/08/07 08:42:26;;;;;;;1.20;0.80;;;17.40;99.70;;;;;;4974995;28;20272;-61
2023/08/07 08:44:53;;;;;;;0.47;0.47;;;17.50;99.60;;;;;;4974072;28;20204;-61
2023/08/07 08:47:20;;;;;;;0.70;0.70;;;17.60;99.50;;;;;;4974707;28;20638;-61
2023/08/07 08:50:07;;;;;;;0.50;0.50;;;17.70;98.40;;;;;;4974596;28;20404;-61
2023/08/07 08:52:35;;;;;;;1.37;1.27;;;17.90;98.40;;;;;;4974488;28;20736;-61
2023/08/07 08:55:01;;;;;;;0.80;0.70;;;18.00;98.10;;;;;;4974303;28;20427;-61
2023/08/07 08:57:28;;;;;;;1.03;1.00;;;18.20;97.60;;;;;;4974480;28;20396;-61
2023/08/07 08:59:53;;;;;;;0.50;0.40;;;18.40;97.30;;;;;;4974560;28;20394;-61
2023/08/07 09:02:19;;;;;;;0.50;0.50;;;18.80;97.70;;;;;;4974486;28;20453;-61
2023/08/07 09:04:45;;;;;;;0.77;0.77;;;19.40;97.10;;;;;;4973884;28;20284;-61
2023/08/07 09:07:13;;;;;;;0.50;0.50;;;19.80;95.90;;;;;;4975587;28;20242;-61
2023/08/07 09:09:40;;;;;;;0.90;0.50;;;19.80;95.00;;;;;;4978351;28;20374;-61
2023/08/07 09:12:15;;;;;;;0.50;0.50;;;19.80;95.00;;;;;;4978099;28;20397;-61
2023/08/07 09:14:43;;;;;;;0.53;0.50;;;19.90;95.40;;;;;;4977899;28;20435;-61
2023/08/07 09:17:09;;;;;;;0.70;0.70;;;20.10;95.00;;;;;;4978082;28;20481;-62
2023/08/07 09:19:35;;;;;;;0.50;0.50;;;20.30;94.30;;;;;;4978165;28;20421;-62
2023/08/07 09:22:01;;;;;;;0.70;0.70;;;20.60;94.00;;;;;;4978372;28;20819;-62
2023/08/07 09:24:26;;;;;;;0.60;0.60;;;20.80;93.20;;;;;;4977604;28;20210;-61
2023/08/07 09:26:55;;;;;;;0.50;0.50;;;21.00;93.20;;;;;;4977864;28;20579;-61
2023/08/07 09:29:21;;;;;;;1.23;0.67;;;21.30;92.70;;;;;;4977963;28;20169;-61
2023/08/07 09:31:47;;;;;;;0.60;0.40;;;21.40;92.70;;;;;;4978150;28;20452;-62
2023/08/07 09:34:16;;;;;;;0.83;0.83;;;21.40;92.20;;;;;;4977612;28;20390;-62
2023/08/07 09:36:42;;;;;;;0.50;0.50;;;21.20;91.60;;;;;;4961166;28;20591;-61
2023/08/07 09:39:07;;;;;;;0.73;0.50;;;21.30;92.20;;;;;;4977927;28;20484;-62
2023/08/07 09:41:34;;;;;;;0.40;0.40;;;21.50;92.70;;;;;;4977861;28;20180;-61
2023/08/07 09:44:10;;;;;;;0.53;0.53;;;21.60;91.60;;;;;;4977184;28;20180;-60
2023/08/07 09:46:43;;;;;;;0.70;0.53;;;21.60;91.70;;;;;;4977825;28;20529;-62
2023/08/07 09:49:09;;;;;;;0.80;0.80;;;21.70;91.20;;;;;;4977593;28;20450;-61
2023/08/07 09:51:45;;;;;;;0.60;0.57;;;21.80;91.30;;;;;;4977555;28;20422;-60
2023/08/07 09:54:11;;;;;;;0.50;0.50;;;21.70;91.50;;;;;;4977188;28;20176;-61
2023/08/07 09:56:40;;;;;;;0.70;0.70;;;21.80;92.10;;;;;;4977505;28;20391;-61
2023/08/07 09:59:07;;;;;;;0.60;0.40;;;21.70;91.60;;;;;;4977298;28;20423;-61
2023/08/07 10:01:36;;;;;;;0.57;0.57;;;21.50;92.20;;;;;;4977364;28;20409;-61
2023/08/07 10:04:02;;;;;;;1.07;0.70;;;22.00;91.80;;;;;;4976954;28;20423;-62
2023/08/07 10:06:27;;;;;;;0.73;0.73;;;22.50;90.50;;;;;;4977047;28;20742;-62
2023/08/07 10:08:54;;;;;;;0.60;0.53;;;23.00;91.10;;;;;;4977357;28;20386;-61
2023/08/07 10:11:21;;;;;;;0.70;0.60;;;23.10;88.50;;;;;;4959985;28;20681;-60
2023/08/07 10:13:47;;;;;;;0.90;0.70;;;22.90;87.00;;;;;;4976891;28;20410;-62
2023/08/07 10:16:14;;;;;;;0.53;0.53;;;22.90;89.60;;;;;;4977138;28;20895;-61
2023/08/07 10:18:39;;;;;;;0.60;0.60;;;22.90;89.40;;;;;;4977029;28;20470;-61
2023/08/07 10:21:06;;;;;;;1.00;0.80;;;22.90;87.50;;;;;;4977032;28;20465;-62
2023/08/07 10:23:36;;;;;;;1.10;1.00;;;22.90;87.00;;;;;;4976735;28;20200;-61
2023/08/07 10:26:05;;;;;;;0.87;0.70;;;23.10;87.60;;;;;;4976630;28;20434;-61
2023/08/07 10:28:37;;;;;;;2.00;0.43;;;23.20;87.90;;;;;;4976972;28;20920;-61
2023/08/07 10:31:04;;;;;;;1.10;1.03;;;23.10;87.20;;;;;;4976845;28;20546;-62
2023/08/07 10:33:31;;;;;;;0.60;0.60;;;22.60;85.10;;;;;;4976752;28;20889;-60
2023/08/07 10:35:59;;;;;;;1.53;0.87;;;22.10;85.50;;;;;;4976743;28;20792;-62
2023/08/07 10:38:25;;;;;;;0.97;0.63;;;21.70;87.60;;;;;;4977260;28;20416;-62
2023/08/07 10:41:12;;;;;;;0.63;0.63;;;21.50;89.00;;;;;;4976573;28;20409;-60
2023/08/07 10:43:45;;;;;;;0.60;0.60;;;21.20;88.90;;;;;;4976361;28;20184;-60
2023/08/07 10:46:19;;;;;;;0.80;0.80;;;21.20;90.60;;;;;;4976438;28;20471;-61
2023/08/07 10:48:47;;;;;;;0.53;0.53;;;21.40;91.00;;;;;;4976581;28;20422;-61
2023/08/07 10:51:14;;;;;;;1.53;0.50;;;21.40;90.10;;;;;;4976375;28;20470;-61
2023/08/07 10:53:46;;;;;;;0.73;0.73;;;21.50;90.30;;;;;;4976263;28;20930;-61
2023/08/07 10:56:29;;;;;;;2.20;0.80;;;21.60;90.30;;;;;;4976442;28;20472;-63
2023/08/07 10:58:55;;;;;;;0.63;0.63;;;21.70;89.60;;;;;;4976297;28;20917;-61
2023/08/07 11:01:27;;;;;;;0.70;0.60;;;21.60;89.10;;;;;;4975965;28;20418;-60
2023/08/07 11:03:52;;;;;;;0.70;0.70;;;21.30;89.50;;;;;;4958174;28;20611;-61
2023/08/07 11:06:22;;;;;;;0.53;0.53;;;21.20;90.30;;;;;;4958266;28;20539;-60
2023/08/07 11:08:48;;;;;;;0.60;0.60;;;20.80;90.30;;;;;;4976050;28;20179;-60
2023/08/07 11:11:14;;;;;;;0.70;0.70;;;20.50;90.60;;;;;;4976029;28;20769;-61
2023/08/07 11:13:40;;;;;;;0.70;0.70;;;20.30;91.30;;;;;;4975529;28;20415;-61
2023/08/07 11:16:05;;;;;;;0.60;0.60;;;20.00;91.70;;;;;;4975763;28;20192;-61
2023/08/07 11:18:32;;;;;;;0.60;0.60;;;19.70;91.40;;;;;;4975676;28;20172;-62
2023/08/07 11:20:59;;;;;;;1.60;0.50;;;19.40;91.30;;;;;;4975771;28;20235;-61
2023/08/07 11:23:28;;;;;;;0.97;0.80;;;19.10;91.60;;;;;;4975517;28;20428;-61
2023/08/07 11:25:54;;;;;;;0.80;0.80;;;18.80;92.00;;;;;;4975559;28;20495;-61
2023/08/07 11:28:23;;;;;;;0.47;0.40;;;18.60;92.60;;;;;;4975509;28;20621;-61
2023/08/07 11:30:53;;;;;;;0.80;0.80;;;18.50;92.60;;;;;;4975061;28;20404;-61
2023/08/07 11:33:19;;;;;;;4.37;0.80;;;18.30;92.90;;;;;;4957981;28;20502;-61
2023/08/07 11:35:46;;;;;;;0.53;0.50;;;18.10;93.10;;;;;;4975632;28;20453;-61
2023/08/07 11:38:12;;;;;;;1.03;0.80;;;18.10;94.20;;;;;;4975680;28;20385;-62
2023/08/07 11:40:38;;;;;;;0.67;0.60;;;18.10;94.00;;;;;;4958313;28;20745;-61
2023/08/07 11:43:03;;;;;;;1.10;1.10;;;18.10;93.70;;;;;;4975420;28;20176;-61
2023/08/07 11:45:29;;;;;;;0.70;0.50;;;18.20;94.00;;;;;;4975213;28;20275;-61
2023/08/07 11:47:56;;;;;;;1.17;0.90;;;18.30;94.10;;;;;;4975542;28;20631;-61
2023/08/07 11:50:25;;;;;;;0.67;0.50;;;18.60;94.40;;;;;;4975411;28;20215;-61
2023/08/07 11:52:50;;;;;;;1.23;0.80;;;19.00;93.60;;;;;;4975367;28;20408;-61
2023/08/07 11:55:18;;;;;;;0.73;0.50;;;19.30;93.20;;;;;;4974837;28;20439;-62
2023/08/07 11:57:48;;;;;;;0.60;0.60;;;19.40;93.00;;;;;;4975087;28;20274;-61
2023/08/07 12:00:14;;;;;;;0.60;0.60;;;19.40;93.50;;;;;;4975051;28;20419;-61
2023/08/07 12:02:43;;;;;;;0.70;0.70;;;19.30;93.20;;;;;;4975326;28;20505;-61
2023/08/07 12:05:11;;;;;;;0.77;0.70;;;19.10;93.60;;;;;;4957545;28;20441;-61
2023/08/07 12:07:37;;;;;;;0.93;0.90;;;18.90;94.20;;;;;;4975099;28;20505;-61
2023/08/07 12:10:09;;;;;;;0.90;0.90;;;18.60;94.90;;;;;;4975178;28;20415;-60
2023/08/07 12:12:36;;;;;;;0.80;0.80;;;18.40;95.10;;;;;;4957683;28;20427;-61
2023/08/07 12:15:04;;;;;;;1.23;0.90;;;18.30;94.70;;;;;;4974717;28;20438;-61
2023/08/07 12:17:31;;;;;;;1.10;1.00;;;18.20;94.90;;;;;;4974765;28;20414;-61
2023/08/07 12:19:58;;;;;;;1.00;1.00;;;18.10;95.40;;;;;;4958382;28;20478;-60
2023/08/07 12:22:26;;;;;;;1.47;1.00;;;18.20;95.30;;;;;;4974937;28;20746;-61
2023/08/07 12:24:53;;;;;;;1.53;1.10;;;18.30;95.70;;;;;;4974531;28;20467;-61
2023/08/07 12:27:19;;;;;;;0.50;0.50;;;18.30;96.10;;;;;;4974959;28;20766;-62
2023/08/07 12:29:45;;;;;;;0.73;0.73;;;18.40;96.30;;;;;;4974826;28;20416;-61
2023/08/07 12:32:10;;;;;;;1.33;1.07;;;18.50;96.40;;;;;;4957359;28;20412;-60
2023/08/07 12:34:37;;;;;;;0.80;0.80;;;18.60;96.20;;;;;;4974169;28;20192;-60
2023/08/07 12:37:04;;;;;;;0.60;0.60;;;18.80;95.70;;;;;;4974539;28;20193;-60
2023/08/07 12:39:29;;;;;;;1.37;1.13;;;18.90;95.50;;;;;;4974999;28;20806;-60
2023/08/07 12:41:55;;;;;;;1.23;1.13;;;19.10;96.10;;;;;;4973876;28;20415;-61
2023/08/07 12:44:21;;;;;;;1.20;1.10;;;19.30;95.90;;;;;;4974047;28;20198;-61
2023/08/07 12:46:46;;;;;;;1.00;1.00;;;19.40;95.60;;;;;;4974337;28;20219;-61
2023/08/07 12:49:12;;;;;;;1.20;0.70;;;19.40;95.20;;;;;;4974467;28;20181;-61
2023/08/07 12:51:37;;;;;;;0.80;0.80;;;19.40;95.20;;;;;;4974461;28;20319;-60
2023/08/07 12:54:03;;;;;;;1.00;1.00;;;19.30;95.50;;;;;;4973974;28;20171;-60
2023/08/07 12:56:29;;;;;;;0.83;0.83;;;19.30;95.50;;;;;;4974526;28;20510;-60
2023/08/07 12:58:55;;;;;;;0.80;0.80;;;19.40;95.20;;;;;;4974558;28;20427;-61
2023/08/07 13:01:20;;;;;;;0.70;0.70;;;19.40;95.00;;;;;;4974668;28;20172;-61
2023/08/07 13:03:46;;;;;;;0.73;0.73;;;19.60;94.90;;;;;;4974340;28;20169;-61
2023/08/07 13:06:11;;;;;;;0.90;0.87;;;19.70;94.40;;;;;;4973979;28;20216;-61
2023/08/07 13:08:37;;;;;;;0.63;0.63;;;19.70;95.10;;;;;;4974556;28;20190;-61
2023/08/07 13:11:03;;;;;;;0.60;0.60;;;19.70;95.10;;;;;;4974520;28;20180;-61
2023/08/07 13:13:30;;;;;;;0.80;0.80;;;19.60;95.30;;;;;;4956698;28;20419;-61
2023/08/07 13:15:56;;;;;;;1.50;1.30;;;19.50;95.40;;;;;;4974310;28;20200;-60
2023/08/07 13:18:22;;;;;;;0.60;0.57;;;19.40;95.20;;;;;;4974485;28;20407;-61
2023/08/07 13:20:47;;;;;;;0.73;0.73;;;19.30;95.90;;;;;;4974061;28;20713;-61
2023/08/07 13:23:14;;;;;;;1.00;1.00;;;19.10;96.40;;;;;;4974377;28;20441;-60
2023/08/07 13:25:40;;;;;;;1.37;1.10;;;19.00;96.40;;;;;;4973771;28;20200;-61
2023/08/07 13:28:06;;;;;;;1.07;1.00;;;18.90;97.00;;;;;;4957201;28;20411;-60
2023/08/07 13:30:35;;;;;;;1.10;1.10;;;18.90;97.40;;;;;;4956882;28;20440;-60
2023/08/07 13:33:01;;;;;;;0.90;0.90;;;18.80;97.20;;;;;;4974172;28;20904;-60
2023/08/07 13:35:26;;;;;;;0.90;0.90;;;18.90;97.20;;;;;;4973432;28;20466;-60
2023/08/07 13:37:52;;;;;;;0.83;0.83;;;19.00;97.20;;;;;;4973840;28;20188;-60
2023/08/07 13:40:18;;;;;;;1.07;1.00;;;19.10;97.00;;;;;;4974266;28;20173;-61
2023/08/07 13:42:45;;;;;;;1.00;1.00;;;19.20;97.00;;;;;;4974008;28;20638;-61
2023/08/07 13:45:13;;;;;;;0.80;0.80;;;19.30;97.10;;;;;;4973697;28;20467;-61
2023/08/07 13:47:39;;;;;;;0.70;0.70;;;19.50;97.30;;;;;;4973829;28;20473;-61
2023/08/07 13:50:05;;;;;;;1.20;1.10;;;19.70;96.60;;;;;;4974158;28;20461;-61
2023/08/07 13:52:31;;;;;;;1.00;0.90;;;20.00;96.40;;;;;;4974006;28;20179;-61
2023/08/07 13:54:56;;;;;;;0.80;0.73;;;20.20;96.30;;;;;;4977028;28;20500;-60
2023/08/07 13:57:22;;;;;;;0.80;0.80;;;20.30;95.50;;;;;;4977607;28;20209;-60
2023/08/07 13:59:48;;;;;;;1.63;1.03;;;20.50;95.10;;;;;;4978460;28;20535;-61
2023/08/07 14:02:14;;;;;;;0.63;0.63;;;20.60;94.30;;;;;;4977896;28;20179;-61
2023/08/07 14:04:39;;;;;;;1.17;1.07;;;20.70;94.30;;;;;;4977167;28;20216;-61
2023/08/07 14:07:06;;;;;;;0.90;0.90;;;20.80;93.90;;;;;;4977264;28;20271;-61
2023/08/07 14:09:31;;;;;;;0.80;0.80;;;20.90;93.60;;;;;;4977468;28;20169;-61
2023/08/07 14:11:57;;;;;;;0.73;0.70;;;20.90;93.40;;;;;;4977428;28;20893;-61
2023/08/07 14:14:23;;;;;;;0.70;0.70;;;20.90;93.50;;;;;;4976986;28;20174;-61
2023/08/07 14:16:48;;;;;;;0.70;0.70;;;20.90;93.90;;;;;;4977181;28;20173;-61
2023/08/07 14:19:14;;;;;;;1.50;1.40;;;20.90;93.80;;;;;;4977172;28;20435;-61
2023/08/07 14:21:40;;;;;;;0.70;0.70;;;20.80;93.70;;;;;;4977089;28;20267;-61
2023/08/07 14:24:06;;;;;;;0.60;0.60;;;20.70;93.90;;;;;;4976910;28;20177;-61
2023/08/07 14:26:31;;;;;;;0.87;0.87;;;20.50;93.80;;;;;;4977002;28;20276;-61
2023/08/07 14:28:57;;;;;;;0.77;0.77;;;20.50;93.30;;;;;;4976890;28;20726;-61
2023/08/07 14:31:22;;;;;;;1.07;0.97;;;20.40;93.90;;;;;;4976605;28;20180;-61
2023/08/07 14:33:48;;;;;;;1.13;1.07;;;20.50;92.80;;;;;;4976966;28;20718;-61
2023/08/07 14:36:14;;;;;;;0.90;0.90;;;20.40;91.80;;;;;;4976806;28;20196;-60
2023/08/07 14:38:40;;;;;;;0.60;0.60;;;20.30;91.80;;;;;;4976819;28;20210;-61
2023/08/07 14:41:06;;;;;;;0.80;0.80;;;20.00;92.10;;;;;;4976717;28;20989;-61
2023/08/07 14:43:31;;;;;;;1.20;1.10;;;19.80;92.50;;;;;;4976429;28;20180;-61
2023/08/07 14:45:58;;;;;;;0.93;0.90;;;19.60;93.80;;;;;;4976547;28;20568;-61
2023/08/07 14:48:24;;;;;;;1.00;1.00;;;19.50;94.00;;;;;;4976607;28;20188;-61
2023/08/07 14:50:50;;;;;;;0.87;0.87;;;19.40;93.90;;;;;;4976458;28;20423;-61
2023/08/07 14:53:15;;;;;;;0.90;0.90;;;19.30;94.90;;;;;;4976558;28;20267;-61
2023/08/07 14:55:41;;;;;;;13.80;1.60;;;19.30;94.60;;;;;;4975976;28;20220;-61
2023/08/07 14:58:07;;;;;;;1.00;1.00;;;19.30;94.30;;;;;;4976466;28;20188;-61
2023/08/07 15:00:34;;;;;;;0.73;0.73;;;19.40;94.50;;;;;;4958976;28;20390;-61
2023/08/07 15:03:00;;;;;;;0.80;0.80;;;19.60;94.40;;;;;;4976237;28;20185;-61
2023/08/07 15:05:26;;;;;;;1.80;1.20;;;19.80;94.20;;;;;;4974782;28;20955;-61
2023/08/07 15:07:51;;;;;;;1.53;1.00;;;20.00;94.10;;;;;;4976368;28;20705;-61
2023/08/07 15:10:17;;;;;;;0.87;0.87;;;20.10;93.40;;;;;;4976163;28;20169;-61
2023/08/07 15:12:43;;;;;;;0.57;0.50;;;20.00;92.80;;;;;;4976242;28;20288;-61
2023/08/07 15:15:08;;;;;;;2.20;1.40;;;19.90;93.10;;;;;;4975458;28;20558;-61
2023/08/07 15:17:34;;;;;;;0.70;0.70;;;19.90;93.50;;;;;;4976411;28;20180;-61
2023/08/07 15:20:00;;;;;;;1.17;1.07;;;19.80;94.30;;;;;;4976276;28;20898;-61
2023/08/07 15:22:25;;;;;;;1.07;0.90;;;19.60;94.10;;;;;;4976120;28;20279;-61
2023/08/07 15:24:51;;;;;;;1.43;1.30;;;19.50;93.90;;;;;;4975759;28;20223;-61
2023/08/07 15:27:16;;;;;;;1.60;1.37;;;19.30;93.90;;;;;;4975901;28;20183;-61
2023/08/07 15:29:46;;;;;;;1.10;1.10;;;19.20;93.90;;;;;;4975893;28;20180;-61
2023/08/07 15:32:13;;;;;;;1.13;1.07;;;19.00;93.80;;;;;;4975593;28;20259;-61
2023/08/07 15:34:39;;;;;;;1.63;1.53;;;18.90;94.60;;;;;;4975310;28;20448;-61
2023/08/07 15:37:05;;;;;;;0.60;0.60;;;18.80;94.60;;;;;;4975469;28;20472;-61
2023/08/07 15:39:30;;;;;;;1.20;1.20;;;18.70;94.30;;;;;;4975704;28;20500;-61
2023/08/07 15:41:56;;;;;;;1.60;1.10;;;18.70;94.30;;;;;;4975714;28;20653;-61
2023/08/07 15:44:22;;;;;;;0.60;0.60;;;18.80;95.00;;;;;;4974961;28;20536;-61
2023/08/07 15:46:48;;;;;;;0.60;0.60;;;18.80;95.40;;;;;;4975557;28;20429;-61
2023/08/07 15:49:13;;;;;;;1.03;1.03;;;19.00;95.40;;;;;;4976519;28;20172;-61
2023/08/07 15:51:40;;;;;;;2.20;2.00;;;19.10;95.20;;;;;;4983948;28;20299;-61
2023/08/07 15:54:06;;;;;;;1.17;1.13;;;19.30;95.00;;;;;;4983001;28;20558;-61
2023/08/07 15:56:32;;;;;;;0.80;0.80;;;19.40;94.70;;;;;;4980118;28;20438;-62
2023/08/07 15:58:58;;;;;;;0.97;0.70;;;19.50;94.20;;;;;;4978374;28;20379;-62
2023/08/07 16:01:24;;;;;;;0.80;0.80;;;19.50;94.20;;;;;;4978430;28;20431;-61
2023/08/07 16:03:49;;;;;;;0.97;0.97;;;19.50;94.30;;;;;;4977023;28;20416;-60
2023/08/07 16:06:15;;;;;;;0.90;0.80;;;19.50;94.30;;;;;;4977698;28;21044;-61
2023/08/07 16:08:41;;;;;;;1.20;1.20;;;19.50;94.70;;;;;;4976486;28;20539;-62
2023/08/07 16:11:07;;;;;;;0.50;0.50;;;19.50;94.90;;;;;;4980072;28;20203;-61
2023/08/07 16:13:33;;;;;;;1.10;1.07;;;19.50;94.20;;;;;;4978232;28;20238;-62
2023/08/07 16:15:59;;;;;;;1.23;0.83;;;19.60;93.80;;;;;;4974685;28;20410;-61
2023/08/07 16:18:24;;;;;;;0.83;0.70;;;19.60;93.60;;;;;;4975033;28;20181;-61
2023/08/07 16:20:50;;;;;;;0.93;0.93;;;19.50;93.60;;;;;;4975080;28;20180;-60
2023/08/07 16:23:16;;;;;;;1.20;1.10;;;19.50;93.70;;;;;;4974921;28;20185;-61
2023/08/07 16:25:42;;;;;;;0.80;0.80;;;19.50;93.70;;;;;;4974449;28;20208;-61
2023/08/07 16:28:07;;;;;;;0.90;0.90;;;19.50;93.70;;;;;;4974919;28;20390;-61
2023/08/07 16:30:33;;;;;;;1.20;1.00;;;19.50;94.00;;;;;;4974674;28;20697;-61
2023/08/07 16:32:58;;;;;;;0.80;0.80;;;19.60;94.50;;;;;;4975138;28;20179;-61
2023/08/07 16:35:24;;;;;;;0.90;0.90;;;19.70;94.20;;;;;;4974473;28;20223;-61
2023/08/07 16:37:50;;;;;;;0.70;0.70;;;19.70;93.90;;;;;;4974810;28;20187;-61
2023/08/07 16:40:15;;;;;;;1.00;1.00;;;19.70;94.10;;;;;;4957550;28;20270;-61
2023/08/07 16:42:41;;;;;;;0.90;0.90;;;19.60;94.60;;;;;;4974584;28;20207;-61
2023/08/07 16:45:07;;;;;;;1.20;1.10;;;19.60;94.60;;;;;;4957175;28;20755;-61
2023/08/07 16:47:32;;;;;;;1.33;1.10;;;19.50;94.60;;;;;;4975182;28;20168;-61